createdAt,value
2023-03-03T00:01:03.362Z,76975.41
2023-03-03T00:03:31.144Z,76969.28
2023-03-03T00:06:00.204Z,76969.28
2023-03-03T00:08:28.155Z,76963.16
2023-03-03T00:10:55.984Z,76959.09
2023-03-03T00:13:26.225Z,76967.25
2023-03-03T00:15:58.199Z,76969.28
2023-03-03T00:18:31.602Z,76959.09
2023-03-03T00:21:01.481Z,76946.84
2023-03-03T00:23:36.574Z,76938.69
2023-03-03T00:26:16.931Z,76938.69
2023-03-03T00:28:47.217Z,76932.56
2023-03-03T00:31:19.299Z,76930.53
2023-03-03T00:33:50.624Z,76928.50
2023-03-03T00:36:31.857Z,76926.47
2023-03-03T00:39:18.621Z,76930.53
2023-03-03T00:41:46.564Z,76930.53
2023-03-03T00:44:36.338Z,76930.53
2023-03-03T00:47:24.833Z,76926.47
2023-03-03T00:49:52.696Z,76922.38
2023-03-03T00:52:21.095Z,76914.22
2023-03-03T00:54:49.193Z,76906.06
2023-03-03T00:57:16.950Z,76893.81
2023-03-03T00:59:44.738Z,76889.75
2023-03-03T01:02:13.882Z,76885.66
2023-03-03T01:04:43.568Z,76877.50
2023-03-03T01:07:11.344Z,76867.31
2023-03-03T01:09:39.058Z,76869.34
2023-03-03T01:12:07.409Z,76865.28
2023-03-03T01:14:35.538Z,76873.44
2023-03-03T01:17:03.484Z,76879.56
2023-03-03T01:19:32.651Z,76885.66
2023-03-03T01:22:00.441Z,76889.75
2023-03-03T01:24:28.202Z,76889.75
2023-03-03T01:26:55.920Z,76897.91
2023-03-03T01:29:23.745Z,76897.91
2023-03-03T01:31:51.505Z,76908.09
2023-03-03T01:34:19.281Z,76910.16
2023-03-03T01:36:48.493Z,76908.09
2023-03-03T01:39:16.223Z,76906.06
2023-03-03T01:41:44.125Z,76910.16
2023-03-03T01:44:15.388Z,76906.06
2023-03-03T01:46:52.841Z,76904.03
2023-03-03T01:49:24.712Z,76908.09
2023-03-03T01:51:58.292Z,76910.16
2023-03-03T01:54:31.170Z,76910.16
2023-03-03T01:57:02.085Z,76904.03
2023-03-03T01:59:33.887Z,76910.16
2023-03-03T02:02:01.665Z,76908.09
2023-03-03T02:04:29.966Z,76906.06
2023-03-03T02:07:04.356Z,76906.06
2023-03-03T02:09:38.064Z,76901.97
2023-03-03T02:12:12.111Z,76901.97
2023-03-03T02:14:39.814Z,76912.19
2023-03-03T02:17:07.876Z,76910.16
2023-03-03T02:19:44.901Z,76910.16
2023-03-03T02:22:17.717Z,76910.16
2023-03-03T02:24:52.506Z,76914.22
2023-03-03T02:27:21.681Z,76908.09
2023-03-03T02:29:49.424Z,76904.03
2023-03-03T02:32:17.185Z,76893.81
2023-03-03T02:34:50.484Z,76885.66
2023-03-03T02:37:19.504Z,76889.75
2023-03-03T02:39:48.197Z,76889.75
2023-03-03T02:42:21.091Z,76906.06
2023-03-03T02:44:50.488Z,76906.06
2023-03-03T02:47:18.296Z,76914.22
2023-03-03T02:49:46.309Z,76926.47
2023-03-03T02:52:14.925Z,76936.66
2023-03-03T02:54:42.780Z,76934.63
2023-03-03T02:57:10.611Z,76950.94
2023-03-03T02:59:38.600Z,76948.88
2023-03-03T03:02:08.955Z,76959.09
2023-03-03T03:04:36.791Z,76969.28
2023-03-03T03:07:04.741Z,76983.56
2023-03-03T03:09:32.493Z,76983.56
2023-03-03T03:12:02.487Z,76983.56
2023-03-03T03:14:30.364Z,76987.63
2023-03-03T03:16:58.232Z,76991.72
2023-03-03T03:19:27.350Z,76995.78
2023-03-03T03:21:55.204Z,77001.91
2023-03-03T03:24:22.927Z,77008.03
2023-03-03T03:26:50.714Z,77010.06
2023-03-03T03:29:18.502Z,77012.09
2023-03-03T03:31:46.271Z,77010.06
2023-03-03T03:34:14.057Z,77016.19
2023-03-03T03:36:43.219Z,77016.19
2023-03-03T03:39:11.050Z,77024.34
2023-03-03T03:41:38.844Z,77030.47
2023-03-03T03:44:06.666Z,77036.59
2023-03-03T03:46:34.398Z,77040.66
2023-03-03T03:49:02.214Z,77040.66
2023-03-03T03:51:30.165Z,77044.75
2023-03-03T03:53:59.255Z,77048.81
2023-03-03T03:56:26.994Z,77048.81
2023-03-03T03:58:54.755Z,77050.84
2023-03-03T04:01:22.501Z,77059.00
2023-03-03T04:03:50.289Z,77063.09
2023-03-03T04:06:18.108Z,77061.06
2023-03-03T04:08:45.840Z,77059.00
2023-03-03T04:11:14.951Z,77061.06
2023-03-03T04:13:42.759Z,77069.22
2023-03-03T04:16:10.541Z,77085.53
2023-03-03T04:18:38.366Z,77085.53
2023-03-03T04:21:06.886Z,77093.69
2023-03-03T04:23:34.628Z,77110.00
2023-03-03T04:26:02.349Z,77118.16
2023-03-03T04:28:31.499Z,77122.22
2023-03-03T04:30:59.265Z,77118.16
2023-03-03T04:33:27.170Z,77126.31
2023-03-03T04:35:55.013Z,77130.41
2023-03-03T04:38:22.818Z,77130.41
2023-03-03T04:40:50.685Z,77134.47
2023-03-03T04:43:18.544Z,77132.44
2023-03-03T04:45:47.661Z,77134.47
2023-03-03T04:48:15.540Z,77132.44
2023-03-03T04:50:43.688Z,77138.56
2023-03-03T04:53:11.582Z,77142.63
2023-03-03T04:55:39.642Z,77146.72
2023-03-03T04:58:07.552Z,77163.03
2023-03-03T05:00:35.309Z,77148.75
2023-03-03T05:03:04.444Z,77150.78
2023-03-03T05:05:32.232Z,77150.78
2023-03-03T05:07:59.947Z,77167.09
2023-03-03T05:10:27.835Z,77163.03
2023-03-03T05:12:55.973Z,77167.09
2023-03-03T05:15:24.234Z,77167.09
2023-03-03T05:17:53.421Z,77177.31
2023-03-03T05:20:24.275Z,77189.53
2023-03-03T05:22:52.129Z,77191.56
2023-03-03T05:25:19.877Z,77207.88
2023-03-03T05:27:47.671Z,77211.97
2023-03-03T05:30:15.781Z,77211.97
2023-03-03T05:32:43.656Z,77220.13
2023-03-03T05:35:11.656Z,77236.44
2023-03-03T05:37:44.947Z,77238.47
2023-03-03T05:40:14.334Z,77238.47
2023-03-03T05:42:42.219Z,77244.59
2023-03-03T05:45:11.014Z,77244.59
2023-03-03T05:47:39.042Z,77248.69
2023-03-03T05:50:07.217Z,77260.91
2023-03-03T05:52:34.943Z,77269.06
2023-03-03T05:55:04.105Z,77262.97
2023-03-03T05:57:32.271Z,77256.84
2023-03-03T06:00:00.069Z,77262.97
2023-03-03T06:02:27.792Z,77265.00
2023-03-03T06:04:55.536Z,77260.91
2023-03-03T06:07:23.305Z,77254.78
2023-03-03T06:09:51.038Z,77254.78
2023-03-03T06:12:20.607Z,77256.84
2023-03-03T06:14:48.375Z,77252.75
2023-03-03T06:17:16.146Z,77254.78
2023-03-03T06:19:43.927Z,77256.84
2023-03-03T06:22:11.711Z,77246.63
2023-03-03T06:24:39.457Z,77242.56
2023-03-03T06:27:07.798Z,77240.53
2023-03-03T06:29:36.942Z,77240.53
2023-03-03T06:32:04.994Z,77234.41
2023-03-03T06:34:32.911Z,77232.38
2023-03-03T06:37:00.703Z,77232.38
2023-03-03T06:39:28.476Z,77216.03
2023-03-03T06:41:56.205Z,77222.16
2023-03-03T06:44:24.114Z,77216.03
2023-03-03T06:46:53.363Z,77203.81
2023-03-03T06:49:21.114Z,77193.63
2023-03-03T06:51:49.036Z,77187.50
2023-03-03T06:54:19.280Z,77177.31
2023-03-03T06:56:48.285Z,77167.09
2023-03-03T06:59:17.913Z,77163.03
2023-03-03T07:01:49.504Z,77160.97
2023-03-03T07:04:30.927Z,77160.97
2023-03-03T07:07:00.203Z,77156.91
2023-03-03T07:09:30.315Z,77142.63
2023-03-03T07:12:02.888Z,77134.47
2023-03-03T07:14:31.571Z,77118.16
2023-03-03T07:17:02.037Z,77101.84
2023-03-03T07:19:35.944Z,77089.59
2023-03-03T07:22:13.833Z,77073.28
2023-03-03T07:24:43.003Z,77069.22
2023-03-03T07:27:14.746Z,77056.97
2023-03-03T07:29:43.010Z,77056.97
2023-03-03T07:32:25.892Z,77054.94
2023-03-03T07:34:56.452Z,77044.75
2023-03-03T07:37:31.775Z,77008.03
2023-03-03T07:40:00.835Z,76983.56
2023-03-03T07:42:34.293Z,76963.16
2023-03-03T07:45:04.976Z,76938.69
2023-03-03T07:47:37.527Z,76914.22
2023-03-03T07:50:17.790Z,76889.75
2023-03-03T07:52:56.818Z,76877.50
2023-03-03T07:55:33.028Z,76853.03
2023-03-03T07:58:22.184Z,76836.72
2023-03-03T08:01:29.195Z,76808.19
2023-03-03T08:03:57.702Z,76777.59
2023-03-03T08:06:37.554Z,76749.03
2023-03-03T08:09:26.150Z,76702.16
2023-03-03T08:11:58.828Z,76679.72
2023-03-03T08:14:31.540Z,76667.47
2023-03-03T08:17:01.722Z,76661.38
2023-03-03T08:19:32.374Z,76620.56
2023-03-03T08:22:10.439Z,76663.41
2023-03-03T08:24:38.674Z,76649.13
2023-03-03T08:27:07.452Z,76624.66
2023-03-03T08:29:35.828Z,76598.16
2023-03-03T08:32:04.658Z,76634.84
2023-03-03T08:34:32.605Z,76640.97
2023-03-03T08:37:01.880Z,76649.13
2023-03-03T08:39:29.778Z,76671.56
2023-03-03T08:41:57.762Z,76681.75
2023-03-03T08:44:25.546Z,76675.63
2023-03-03T08:46:53.394Z,76689.91
2023-03-03T08:49:22.296Z,76681.75
2023-03-03T08:51:50.083Z,76679.72
2023-03-03T08:54:19.223Z,76669.53
2023-03-03T08:56:46.970Z,76665.44
2023-03-03T08:59:14.920Z,76632.81
2023-03-03T09:01:44.705Z,76632.81
2023-03-03T09:04:12.873Z,76647.09
2023-03-03T09:06:40.884Z,76640.97
2023-03-03T09:09:08.941Z,76612.41
2023-03-03T09:11:38.753Z,76555.31
2023-03-03T09:14:12.767Z,76524.75
2023-03-03T09:16:42.975Z,76486.00
2023-03-03T09:19:21.600Z,76467.66
2023-03-03T09:21:49.649Z,76428.91
2023-03-03T09:24:26.424Z,76388.13
2023-03-03T09:26:55.909Z,76371.81
2023-03-03T09:29:29.174Z,76359.59
2023-03-03T09:31:59.026Z,76331.03
2023-03-03T09:34:39.244Z,76306.56
2023-03-03T09:37:19.792Z,76294.34
2023-03-03T09:39:50.668Z,76269.88
2023-03-03T09:42:42.840Z,76261.72
2023-03-03T09:45:26.276Z,76233.16
2023-03-03T09:48:25.844Z,76235.22
2023-03-03T09:51:04.549Z,76249.47
2023-03-03T09:53:50.848Z,76273.94
2023-03-03T09:56:26.236Z,76324.91
2023-03-03T09:59:08.655Z,76312.69
2023-03-03T10:01:49.589Z,76343.28
2023-03-03T10:04:32.697Z,76322.88
2023-03-03T10:07:16.683Z,76320.84
2023-03-03T10:10:04.976Z,76318.81
2023-03-03T10:12:38.614Z,76294.34
2023-03-03T10:15:28.204Z,76225.00
2023-03-03T10:18:16.712Z,76212.78
2023-03-03T10:20:51.098Z,76245.41
2023-03-03T10:23:25.298Z,76265.78
2023-03-03T10:26:12.431Z,76231.13
2023-03-03T10:29:06.098Z,76212.78
2023-03-03T10:31:56.810Z,76239.28
2023-03-03T10:34:49.779Z,76216.84
2023-03-03T10:37:25.364Z,76149.56
2023-03-03T10:40:10.989Z,76149.56
2023-03-03T10:43:29.922Z,76104.72
2023-03-03T10:46:19.803Z,76078.22
2023-03-03T10:49:03.406Z,76078.22
2023-03-03T10:51:39.043Z,76080.25
2023-03-03T10:54:24.267Z,76049.69
2023-03-03T10:56:59.002Z,76008.91
2023-03-03T10:59:41.045Z,75964.06
2023-03-03T11:02:17.007Z,75939.59
2023-03-03T11:05:00.212Z,75933.47
2023-03-03T11:07:36.296Z,75915.13
2023-03-03T11:10:23.095Z,75909.00
2023-03-03T11:13:03.278Z,75911.03
2023-03-03T11:15:41.913Z,75866.19
2023-03-03T11:18:25.795Z,75927.34
2023-03-03T11:21:03.871Z,75955.91
2023-03-03T11:23:54.510Z,75931.44
2023-03-03T11:26:34.356Z,75955.91
2023-03-03T11:29:18.755Z,75882.50
2023-03-03T11:31:50.004Z,75886.56
2023-03-03T11:34:35.296Z,75927.34
2023-03-03T11:37:09.868Z,75915.13
2023-03-03T11:39:38.598Z,75882.50
2023-03-03T11:42:17.969Z,75898.81
2023-03-03T11:44:48.890Z,75862.13
2023-03-03T11:47:22.989Z,75906.97
2023-03-03T11:49:57.436Z,75919.19
2023-03-03T11:52:34.102Z,75856.00
2023-03-03T11:55:08.112Z,75849.88
2023-03-03T11:57:42.735Z,75866.19
2023-03-03T12:00:29.342Z,75858.03
2023-03-03T12:03:15.034Z,75858.03
2023-03-03T12:05:54.772Z,75833.56
2023-03-03T12:08:51.034Z,75845.81
2023-03-03T12:11:26.550Z,75839.69
2023-03-03T12:14:00.519Z,75833.56
2023-03-03T12:16:40.591Z,75843.75
2023-03-03T12:19:23.703Z,75833.56
2023-03-03T12:22:07.557Z,75839.69
2023-03-03T12:24:48.007Z,75858.03
2023-03-03T12:27:22.417Z,75845.81
2023-03-03T12:30:05.267Z,75819.31
2023-03-03T12:32:49.186Z,75796.88
2023-03-03T12:35:25.108Z,75788.72
2023-03-03T12:37:57.793Z,75788.72
2023-03-03T12:40:34.305Z,75796.88
2023-03-03T12:43:18.631Z,75764.25
2023-03-03T12:45:57.131Z,75743.88
2023-03-03T12:48:37.243Z,75750.00
2023-03-03T12:51:14.919Z,75715.34
2023-03-03T12:54:05.034Z,75727.56
2023-03-03T12:56:38.952Z,75725.53
2023-03-03T12:59:14.750Z,75711.25
2023-03-03T13:01:55.897Z,75715.34
2023-03-03T13:04:35.386Z,75694.94
2023-03-03T13:07:11.146Z,75750.00
2023-03-03T13:09:55.556Z,75760.19
2023-03-03T13:12:32.668Z,75719.41
2023-03-03T13:15:10.633Z,75727.56
2023-03-03T13:17:43.694Z,75731.66
2023-03-03T13:20:23.701Z,75752.03
2023-03-03T13:22:56.767Z,75731.66
2023-03-03T13:25:44.312Z,75756.09
2023-03-03T13:28:22.265Z,75756.09
2023-03-03T13:30:54.829Z,75780.56
2023-03-03T13:33:27.910Z,75754.06
2023-03-03T13:35:59.280Z,75776.50
2023-03-03T13:38:30.934Z,75768.34
2023-03-03T13:41:07.968Z,75776.50
2023-03-03T13:43:45.461Z,75764.25
2023-03-03T13:46:19.502Z,75778.53
2023-03-03T13:49:24.975Z,75776.50
2023-03-03T13:52:01.942Z,75770.38
2023-03-03T13:54:45.990Z,75770.38
2023-03-03T13:57:28.688Z,75764.25
2023-03-03T14:00:14.369Z,75774.47
2023-03-03T14:02:58.287Z,75756.09
2023-03-03T14:05:31.748Z,75772.41
2023-03-03T14:08:09.306Z,75792.81
2023-03-03T14:10:42.446Z,75805.03
2023-03-03T14:13:13.050Z,75788.72
2023-03-03T14:15:49.660Z,75776.50
2023-03-03T14:18:25.747Z,75764.25
2023-03-03T14:20:56.166Z,75778.53
2023-03-03T14:23:28.591Z,75784.66
2023-03-03T14:26:00.803Z,75760.19
2023-03-03T14:28:30.769Z,75784.66
2023-03-03T14:31:16.975Z,75792.81
2023-03-03T14:33:47.557Z,75770.38
2023-03-03T14:36:18.028Z,75776.50
2023-03-03T14:38:51.667Z,75794.84
2023-03-03T14:41:36.436Z,75811.16
2023-03-03T14:44:25.123Z,75833.56
2023-03-03T14:47:22.248Z,75829.50
2023-03-03T14:49:50.786Z,75835.63
2023-03-03T14:52:26.135Z,75853.97
2023-03-03T14:54:55.665Z,75845.81
2023-03-03T14:57:41.707Z,75856.00
2023-03-03T15:00:31.094Z,75862.13
2023-03-03T15:03:06.636Z,75870.28
2023-03-03T15:05:35.147Z,75878.44
2023-03-03T15:08:11.903Z,75878.44
2023-03-03T15:10:41.424Z,75872.31
2023-03-03T15:13:34.884Z,75882.50
2023-03-03T15:16:12.396Z,75890.66
2023-03-03T15:19:20.110Z,75909.00
2023-03-03T15:22:00.415Z,75909.00
2023-03-03T15:24:38.842Z,75921.25
2023-03-03T15:27:13.351Z,75927.34
2023-03-03T15:29:49.910Z,75939.59
2023-03-03T15:32:30.824Z,75945.69
2023-03-03T15:35:15.423Z,75935.50
2023-03-03T15:37:48.724Z,75947.75
2023-03-03T15:40:26.751Z,75951.81
2023-03-03T15:43:03.032Z,75974.25
2023-03-03T15:45:35.397Z,75992.59
2023-03-03T15:48:25.277Z,75988.50
2023-03-03T15:51:00.394Z,76004.81
2023-03-03T15:53:43.694Z,75994.63
2023-03-03T15:56:21.582Z,76008.91
2023-03-03T15:59:05.232Z,76008.91
2023-03-03T16:01:35.508Z,76021.13
2023-03-03T16:04:10.627Z,76012.97
2023-03-03T16:06:48.357Z,76029.28
2023-03-03T16:09:33.174Z,76027.25
2023-03-03T16:12:12.780Z,76033.38
2023-03-03T16:14:55.208Z,76039.47
2023-03-03T16:17:33.432Z,76053.75
2023-03-03T16:20:10.922Z,76055.78
2023-03-03T16:23:08.372Z,76061.91
2023-03-03T16:25:53.234Z,76072.09
2023-03-03T16:28:27.025Z,76086.38
2023-03-03T16:31:01.900Z,76082.28
2023-03-03T16:33:37.415Z,76094.53
2023-03-03T16:36:10.785Z,76106.75
2023-03-03T16:38:42.745Z,76121.03
2023-03-03T16:41:15.448Z,76135.31
2023-03-03T16:43:51.519Z,76155.69
2023-03-03T16:46:31.897Z,76169.97
2023-03-03T16:49:07.437Z,76172.00
2023-03-03T16:51:43.188Z,76192.41
2023-03-03T16:54:19.578Z,76196.47
2023-03-03T16:56:53.434Z,76208.69
2023-03-03T16:59:55.655Z,76212.78
2023-03-03T17:02:58.825Z,76220.94
2023-03-03T17:05:35.148Z,76233.16
2023-03-03T17:08:18.643Z,76233.16
2023-03-03T17:10:52.375Z,76243.38
2023-03-03T17:13:55.991Z,76249.47
2023-03-03T17:16:39.873Z,76249.47
2023-03-03T17:19:30.021Z,76253.56
2023-03-03T17:22:08.692Z,76273.94
2023-03-03T17:24:48.550Z,76292.28
2023-03-03T17:27:27.711Z,76302.50
2023-03-03T17:30:07.659Z,76316.75
2023-03-03T17:32:58.333Z,76326.97
2023-03-03T17:35:45.340Z,76343.28
2023-03-03T17:38:26.135Z,76347.34
2023-03-03T17:41:04.116Z,76351.44
2023-03-03T17:43:43.551Z,76351.44
2023-03-03T17:46:18.507Z,76367.75
2023-03-03T17:49:24.980Z,76392.22
2023-03-03T17:52:21.217Z,76410.56
2023-03-03T17:55:18.376Z,76439.09
2023-03-03T17:58:00.103Z,76453.38
2023-03-03T18:00:49.202Z,76477.84
2023-03-03T18:03:53.665Z,76502.31
2023-03-03T18:06:40.540Z,76526.78
2023-03-03T18:09:22.168Z,76547.16
2023-03-03T18:12:13.358Z,76575.72
2023-03-03T18:14:58.034Z,76592.03
2023-03-03T18:17:45.634Z,76620.56
2023-03-03T18:20:35.501Z,76640.97
2023-03-03T18:23:31.635Z,76640.97
2023-03-03T18:26:00.601Z,76649.13
2023-03-03T18:28:46.235Z,76655.25
2023-03-03T18:31:24.857Z,76661.38
2023-03-03T18:34:03.764Z,76671.56
2023-03-03T18:36:40.723Z,76681.75
2023-03-03T18:39:15.138Z,76689.91
2023-03-03T18:42:06.725Z,76706.22
2023-03-03T18:44:34.591Z,76722.53
2023-03-03T18:47:02.468Z,76730.69
2023-03-03T18:49:52.572Z,76738.84
2023-03-03T18:52:27.385Z,76751.09
2023-03-03T18:55:05.996Z,76763.31
2023-03-03T18:57:33.824Z,76771.47
2023-03-03T19:00:15.282Z,76781.66
2023-03-03T19:02:53.470Z,76789.81
2023-03-03T19:05:25.739Z,76791.88
2023-03-03T19:07:59.305Z,76795.94
2023-03-03T19:10:52.091Z,76820.41
2023-03-03T19:13:41.095Z,76828.56
2023-03-03T19:16:09.206Z,76840.81
2023-03-03T19:18:57.608Z,76840.81
2023-03-03T19:21:31.252Z,76853.03
2023-03-03T19:24:01.024Z,76853.03
2023-03-03T19:26:42.033Z,76861.19
2023-03-03T19:29:23.819Z,76873.44
2023-03-03T19:31:59.239Z,76881.59
2023-03-03T19:34:34.858Z,76885.66
2023-03-03T19:37:17.202Z,76906.06
2023-03-03T19:39:54.646Z,76901.97
2023-03-03T19:42:39.923Z,76922.38
2023-03-03T19:45:20.535Z,76934.63
2023-03-03T19:47:52.469Z,76942.78
2023-03-03T19:50:32.284Z,76942.78
2023-03-03T19:53:11.745Z,76938.69
2023-03-03T19:55:49.535Z,76938.69
2023-03-03T19:58:32.761Z,76938.69
2023-03-03T20:01:08.587Z,76938.69
2023-03-03T20:03:52.714Z,76946.84
2023-03-03T20:06:35.866Z,76961.13
2023-03-03T20:09:15.288Z,76957.03
2023-03-03T20:12:04.130Z,76955.00
2023-03-03T20:14:45.946Z,76959.09
2023-03-03T20:17:30.594Z,76963.16
2023-03-03T20:20:07.969Z,76965.19
2023-03-03T20:22:47.171Z,76965.19
2023-03-03T20:25:29.220Z,76955.00
2023-03-03T20:28:06.891Z,76950.94
2023-03-03T20:30:51.659Z,76934.63
2023-03-03T20:33:44.067Z,76922.38
2023-03-03T20:36:19.212Z,76910.16
2023-03-03T20:38:55.510Z,76914.22
2023-03-03T20:41:33.455Z,76901.97
2023-03-03T20:44:10.518Z,76897.91
2023-03-03T20:46:48.090Z,76897.91
2023-03-03T20:49:34.116Z,76904.03
2023-03-03T20:52:08.339Z,76916.25
2023-03-03T20:54:46.826Z,76940.72
2023-03-03T20:57:23.885Z,76944.81
2023-03-03T21:00:00.250Z,76967.25
2023-03-03T21:02:38.717Z,76975.41
2023-03-03T21:05:13.817Z,76993.75
2023-03-03T21:07:54.060Z,77008.03
2023-03-03T21:10:24.733Z,77012.09
2023-03-03T21:12:55.907Z,77012.09
2023-03-03T21:15:27.349Z,77018.22
2023-03-03T21:17:55.990Z,77020.25
2023-03-03T21:20:30.606Z,77028.41
2023-03-03T21:22:59.765Z,77028.41
2023-03-03T21:25:47.815Z,77032.50
2023-03-03T21:28:20.195Z,77028.41
2023-03-03T21:31:21.684Z,77028.41
2023-03-03T21:33:52.363Z,77028.41
2023-03-03T21:36:23.207Z,77028.41
2023-03-03T21:38:52.049Z,77026.38
2023-03-03T21:41:20.453Z,77018.22
2023-03-03T21:43:51.950Z,77016.19
2023-03-03T21:46:20.491Z,77014.16
2023-03-03T21:48:48.501Z,77012.09
2023-03-03T21:51:16.832Z,77016.19
2023-03-03T21:53:45.801Z,77012.09
2023-03-03T21:56:14.053Z,77010.06
2023-03-03T21:58:42.045Z,77018.22
2023-03-03T22:01:11.393Z,77024.34
2023-03-03T22:03:39.133Z,77032.50
2023-03-03T22:06:07.789Z,77038.63
2023-03-03T22:08:35.582Z,77048.81
2023-03-03T22:11:03.410Z,77061.06
2023-03-03T22:13:31.143Z,77069.22
2023-03-03T22:15:59.058Z,77079.41
2023-03-03T22:18:28.202Z,77089.59
2023-03-03T22:20:55.939Z,77097.75
2023-03-03T22:23:23.769Z,77099.81
2023-03-03T22:25:51.484Z,77101.84
2023-03-03T22:28:19.223Z,77105.91
2023-03-03T22:30:47.051Z,77114.06
2023-03-03T22:33:14.808Z,77107.97
2023-03-03T22:35:43.925Z,77118.16
2023-03-03T22:38:11.766Z,77120.19
2023-03-03T22:40:39.514Z,77124.28
2023-03-03T22:43:07.393Z,77122.22
2023-03-03T22:45:35.285Z,77130.41
2023-03-03T22:48:03.132Z,77134.47
2023-03-03T22:50:30.947Z,77140.59
2023-03-03T22:53:00.132Z,77140.59
2023-03-03T22:55:29.349Z,77163.03
2023-03-03T22:57:57.097Z,77173.22
2023-03-03T23:00:24.915Z,77183.41
2023-03-03T23:02:52.717Z,77173.22
2023-03-03T23:05:20.552Z,77185.47
2023-03-03T23:07:48.416Z,77185.47
2023-03-03T23:10:17.574Z,77189.53
2023-03-03T23:12:45.414Z,77195.66
2023-03-03T23:15:14.190Z,77199.72
2023-03-03T23:17:43.437Z,77203.81
2023-03-03T23:20:13.653Z,77207.88
2023-03-03T23:22:41.898Z,77211.97
2023-03-03T23:25:11.698Z,77214.00
2023-03-03T23:27:40.963Z,77220.13
2023-03-03T23:30:10.733Z,77220.13
2023-03-03T23:32:38.453Z,77224.22
2023-03-03T23:35:07.287Z,77228.28
2023-03-03T23:37:35.196Z,77234.41
2023-03-03T23:40:03.072Z,77236.44
2023-03-03T23:42:30.940Z,77236.44
2023-03-03T23:45:00.067Z,77244.59
2023-03-03T23:47:27.897Z,77258.88
2023-03-03T23:49:55.652Z,77265.00
2023-03-03T23:52:23.485Z,77269.06
2023-03-03T23:54:51.473Z,77265.00
2023-03-03T23:57:19.220Z,77265.00
2023-03-03T23:59:47.034Z,77267.03
